sensor_id;sensor_type;location;lat;lon;timestamp;P1;P2;P0
62846;PMS5003;49477;35.676;139.586;2023-04-01T00:01:20;16;14;
62846;PMS5003;49477;35.676;139.586;2023-04-01T00:03:49;24;15;
62846;PMS5003;49477;35.676;139.586;2023-04-01T00:06:18;21;17;
62846;PMS5003;49477;35.676;139.586;2023-04-01T00:08:48;18;16;
62846;PMS5003;49477;35.676;139.586;2023-04-01T00:11:17;19;18;
62846;PMS5003;49477;35.676;139.586;2023-04-01T00:13:47;18;15;
62846;PMS5003;49477;35.676;139.586;2023-04-01T00:16:17;17;17;
62846;PMS5003;49477;35.676;139.586;2023-04-01T00:18:46;16;16;
62846;PMS5003;49477;35.676;139.586;2023-04-01T00:21:15;18;16;
62846;PMS5003;49477;35.676;139.586;2023-04-01T00:23:45;17;15;
62846;PMS5003;49477;35.676;139.586;2023-04-01T00:26:15;21;17;
62846;PMS5003;49477;35.676;139.586;2023-04-01T00:28:44;12;12;
62846;PMS5003;49477;35.676;139.586;2023-04-01T00:31:13;14;13;
62846;PMS5003;49477;35.676;139.586;2023-04-01T00:33:42;12;11;
62846;PMS5003;49477;35.676;139.586;2023-04-01T00:36:13;15;12;
62846;PMS5003;49477;35.676;139.586;2023-04-01T00:38:44;14;12;
62846;PMS5003;49477;35.676;139.586;2023-04-01T00:41:14;18;14;
62846;PMS5003;49477;35.676;139.586;2023-04-01T00:43:45;13;12;
62846;PMS5003;49477;35.676;139.586;2023-04-01T00:46:15;9;8;
62846;PMS5003;49477;35.676;139.586;2023-04-01T00:48:46;15;14;
62846;PMS5003;49477;35.676;139.586;2023-04-01T00:51:22;15;12;
62846;PMS5003;49477;35.676;139.586;2023-04-01T00:53:55;11;11;
62846;PMS5003;49477;35.676;139.586;2023-04-01T00:56:27;12;11;
62846;PMS5003;49477;35.676;139.586;2023-04-01T00:59:02;14;13;
62846;PMS5003;49477;35.676;139.586;2023-04-01T01:01:36;14;13;
62846;PMS5003;49477;35.676;139.586;2023-04-01T01:04:05;12;11;
62846;PMS5003;49477;35.676;139.586;2023-04-01T01:06:39;10;10;
62846;PMS5003;49477;35.676;139.586;2023-04-01T01:09:23;11;10;
62846;PMS5003;49477;35.676;139.586;2023-04-01T01:12:00;12;11;
62846;PMS5003;49477;35.676;139.586;2023-04-01T01:14:36;16;14;
62846;PMS5003;49477;35.676;139.586;2023-04-01T01:17:19;10;10;
62846;PMS5003;49477;35.676;139.586;2023-04-01T01:20:56;11;11;
62846;PMS5003;49477;35.676;139.586;2023-04-01T01:24:14;11;10;
62846;PMS5003;49477;35.676;139.586;2023-04-01T01:27:00;13;11;
62846;PMS5003;49477;35.676;139.586;2023-04-01T01:29:40;10;8;
62846;PMS5003;49477;35.676;139.586;2023-04-01T01:32:32;8;8;
62846;PMS5003;49477;35.676;139.586;2023-04-01T01:35:14;8;8;
62846;PMS5003;49477;35.676;139.586;2023-04-01T01:37:49;13;11;
62846;PMS5003;49477;35.676;139.586;2023-04-01T01:40:21;7;7;
62846;PMS5003;49477;35.676;139.586;2023-04-01T01:42:53;11;11;
62846;PMS5003;49477;35.676;139.586;2023-04-01T01:45:27;8;8;
62846;PMS5003;49477;35.676;139.586;2023-04-01T01:47:59;8;8;
62846;PMS5003;49477;35.676;139.586;2023-04-01T01:50:31;10;7;
62846;PMS5003;49477;35.676;139.586;2023-04-01T01:53:02;12;11;
62846;PMS5003;49477;35.676;139.586;2023-04-01T01:55:34;11;11;
62846;PMS5003;49477;35.676;139.586;2023-04-01T01:58:06;11;10;
62846;PMS5003;49477;35.676;139.586;2023-04-01T02:00:39;8;7;
62846;PMS5003;49477;35.676;139.586;2023-04-01T02:03:12;9;9;
62846;PMS5003;49477;35.676;139.586;2023-04-01T02:05:42;11;11;
62846;PMS5003;49477;35.676;139.586;2023-04-01T02:08:11;8;8;
62846;PMS5003;49477;35.676;139.586;2023-04-01T02:10:45;9;8;
62846;PMS5003;49477;35.676;139.586;2023-04-01T02:13:24;9;9;
62846;PMS5003;49477;35.676;139.586;2023-04-01T02:15:59;9;9;
62846;PMS5003;49477;35.676;139.586;2023-04-01T02:18:33;13;10;
62846;PMS5003;49477;35.676;139.586;2023-04-01T02:21:05;11;10;
62846;PMS5003;49477;35.676;139.586;2023-04-01T02:23:36;10;7;
62846;PMS5003;49477;35.676;139.586;2023-04-01T02:26:07;7;7;
62846;PMS5003;49477;35.676;139.586;2023-04-01T02:28:38;9;7;
62846;PMS5003;49477;35.676;139.586;2023-04-01T02:31:10;10;7;
62846;PMS5003;49477;35.676;139.586;2023-04-01T02:33:40;9;9;
62846;PMS5003;49477;35.676;139.586;2023-04-01T02:36:11;9;8;
62846;PMS5003;49477;35.676;139.586;2023-04-01T02:38:42;10;8;
62846;PMS5003;49477;35.676;139.586;2023-04-01T02:41:14;12;9;
62846;PMS5003;49477;35.676;139.586;2023-04-01T02:43:43;10;9;
62846;PMS5003;49477;35.676;139.586;2023-04-01T02:46:13;7;7;
62846;PMS5003;49477;35.676;139.586;2023-04-01T02:48:42;8;7;
62846;PMS5003;49477;35.676;139.586;2023-04-01T02:51:12;11;9;
62846;PMS5003;49477;35.676;139.586;2023-04-01T02:53:41;10;8;
62846;PMS5003;49477;35.676;139.586;2023-04-01T02:56:11;8;8;
62846;PMS5003;49477;35.676;139.586;2023-04-01T02:58:40;12;10;
62846;PMS5003;49477;35.676;139.586;2023-04-01T03:01:09;11;9;
62846;PMS5003;49477;35.676;139.586;2023-04-01T03:03:39;9;9;
62846;PMS5003;49477;35.676;139.586;2023-04-01T03:06:09;7;7;
62846;PMS5003;49477;35.676;139.586;2023-04-01T03:08:40;7;7;
62846;PMS5003;49477;35.676;139.586;2023-04-01T03:11:09;8;7;
62846;PMS5003;49477;35.676;139.586;2023-04-01T03:13:39;8;7;
62846;PMS5003;49477;35.676;139.586;2023-04-01T03:16:08;7;7;
62846;PMS5003;49477;35.676;139.586;2023-04-01T03:18:38;12;9;
62846;PMS5003;49477;35.676;139.586;2023-04-01T03:21:15;8;6;
62846;PMS5003;49477;35.676;139.586;2023-04-01T03:23:46;10;7;
62846;PMS5003;49477;35.676;139.586;2023-04-01T03:26:15;7;7;
62846;PMS5003;49477;35.676;139.586;2023-04-01T03:28:45;8;6;
62846;PMS5003;49477;35.676;139.586;2023-04-01T03:31:14;6;6;
62846;PMS5003;49477;35.676;139.586;2023-04-01T03:33:44;8;7;
62846;PMS5003;49477;35.676;139.586;2023-04-01T03:36:13;7;7;
62846;PMS5003;49477;35.676;139.586;2023-04-01T03:38:44;5;5;
62846;PMS5003;49477;35.676;139.586;2023-04-01T03:41:14;9;6;
62846;PMS5003;49477;35.676;139.586;2023-04-01T03:43:44;9;7;
62846;PMS5003;49477;35.676;139.586;2023-04-01T03:46:17;10;7;
62846;PMS5003;49477;35.676;139.586;2023-04-01T03:48:46;9;7;
62846;PMS5003;49477;35.676;139.586;2023-04-01T03:51:15;5;5;
62846;PMS5003;49477;35.676;139.586;2023-04-01T03:53:45;6;6;
62846;PMS5003;49477;35.676;139.586;2023-04-01T03:56:14;6;6;
62846;PMS5003;49477;35.676;139.586;2023-04-01T03:58:44;8;8;
62846;PMS5003;49477;35.676;139.586;2023-04-01T04:01:14;8;7;
62846;PMS5003;49477;35.676;139.586;2023-04-01T04:03:45;5;5;
62846;PMS5003;49477;35.676;139.586;2023-04-01T04:06:14;9;7;
62846;PMS5003;49477;35.676;139.586;2023-04-01T04:08:45;10;8;
62846;PMS5003;49477;35.676;139.586;2023-04-01T04:11:15;8;6;
62846;PMS5003;49477;35.676;139.586;2023-04-01T04:13:44;6;5;
62846;PMS5003;49477;35.676;139.586;2023-04-01T04:16:14;8;7;
62846;PMS5003;49477;35.676;139.586;2023-04-01T04:18:44;9;7;
62846;PMS5003;49477;35.676;139.586;2023-04-01T04:21:14;7;7;
62846;PMS5003;49477;35.676;139.586;2023-04-01T04:23:43;6;6;
62846;PMS5003;49477;35.676;139.586;2023-04-01T04:26:13;8;7;
62846;PMS5003;49477;35.676;139.586;2023-04-01T04:28:43;5;5;
62846;PMS5003;49477;35.676;139.586;2023-04-01T04:31:13;8;8;
62846;PMS5003;49477;35.676;139.586;2023-04-01T04:33:47;9;8;
62846;PMS5003;49477;35.676;139.586;2023-04-01T04:36:18;8;6;
62846;PMS5003;49477;35.676;139.586;2023-04-01T04:38:48;9;7;
62846;PMS5003;49477;35.676;139.586;2023-04-01T04:41:18;9;8;
62846;PMS5003;49477;35.676;139.586;2023-04-01T04:43:49;6;6;
62846;PMS5003;49477;35.676;139.586;2023-04-01T04:46:21;9;6;
62846;PMS5003;49477;35.676;139.586;2023-04-01T04:48:50;11;7;
62846;PMS5003;49477;35.676;139.586;2023-04-01T04:51:20;8;6;
62846;PMS5003;49477;35.676;139.586;2023-04-01T04:53:50;10;7;
62846;PMS5003;49477;35.676;139.586;2023-04-01T04:56:19;10;9;
62846;PMS5003;49477;35.676;139.586;2023-04-01T04:58:49;11;8;
62846;PMS5003;49477;35.676;139.586;2023-04-01T05:01:19;5;5;
62846;PMS5003;49477;35.676;139.586;2023-04-01T05:03:49;12;7;
62846;PMS5003;49477;35.676;139.586;2023-04-01T05:06:19;8;6;
62846;PMS5003;49477;35.676;139.586;2023-04-01T05:08:48;10;8;
62846;PMS5003;49477;35.676;139.586;2023-04-01T05:11:18;10;10;
62846;PMS5003;49477;35.676;139.586;2023-04-01T05:13:47;7;7;
62846;PMS5003;49477;35.676;139.586;2023-04-01T05:16:18;9;9;
62846;PMS5003;49477;35.676;139.586;2023-04-01T05:18:48;11;11;
62846;PMS5003;49477;35.676;139.586;2023-04-01T05:21:17;9;8;
62846;PMS5003;49477;35.676;139.586;2023-04-01T05:23:47;11;10;
62846;PMS5003;49477;35.676;139.586;2023-04-01T05:26:16;11;8;
62846;PMS5003;49477;35.676;139.586;2023-04-01T05:28:46;11;10;
62846;PMS5003;49477;35.676;139.586;2023-04-01T05:31:15;7;7;
62846;PMS5003;49477;35.676;139.586;2023-04-01T05:33:45;9;8;
62846;PMS5003;49477;35.676;139.586;2023-04-01T05:36:15;8;7;
62846;PMS5003;49477;35.676;139.586;2023-04-01T05:38:44;8;6;
62846;PMS5003;49477;35.676;139.586;2023-04-01T05:41:14;12;8;
62846;PMS5003;49477;35.676;139.586;2023-04-01T05:43:43;7;7;
62846;PMS5003;49477;35.676;139.586;2023-04-01T05:46:12;9;9;
62846;PMS5003;49477;35.676;139.586;2023-04-01T05:48:42;8;8;
62846;PMS5003;49477;35.676;139.586;2023-04-01T05:51:12;10;8;
62846;PMS5003;49477;35.676;139.586;2023-04-01T05:53:42;8;8;
62846;PMS5003;49477;35.676;139.586;2023-04-01T05:56:11;10;10;
62846;PMS5003;49477;35.676;139.586;2023-04-01T05:58:41;10;8;
62846;PMS5003;49477;35.676;139.586;2023-04-01T06:01:13;11;10;
62846;PMS5003;49477;35.676;139.586;2023-04-01T06:03:43;9;8;
62846;PMS5003;49477;35.676;139.586;2023-04-01T06:06:14;13;7;
62846;PMS5003;49477;35.676;139.586;2023-04-01T06:08:47;11;11;
62846;PMS5003;49477;35.676;139.586;2023-04-01T06:11:21;11;8;
62846;PMS5003;49477;35.676;139.586;2023-04-01T06:14:03;10;9;
62846;PMS5003;49477;35.676;139.586;2023-04-01T06:16:47;7;7;
62846;PMS5003;49477;35.676;139.586;2023-04-01T06:19:31;9;9;
62846;PMS5003;49477;35.676;139.586;2023-04-01T06:22:16;10;8;
62846;PMS5003;49477;35.676;139.586;2023-04-01T06:26:03;8;8;
62846;PMS5003;49477;35.676;139.586;2023-04-01T06:29:51;9;9;
62846;PMS5003;49477;35.676;139.586;2023-04-01T06:32:31;9;9;
62846;PMS5003;49477;35.676;139.586;2023-04-01T06:35:22;8;8;
62846;PMS5003;49477;35.676;139.586;2023-04-01T06:38:38;9;9;
62846;PMS5003;49477;35.676;139.586;2023-04-01T06:41:36;9;9;
62846;PMS5003;49477;35.676;139.586;2023-04-01T06:44:17;9;9;
62846;PMS5003;49477;35.676;139.586;2023-04-01T06:46:52;11;11;
62846;PMS5003;49477;35.676;139.586;2023-04-01T06:49:35;10;10;
62846;PMS5003;49477;35.676;139.586;2023-04-01T06:52:18;11;10;
62846;PMS5003;49477;35.676;139.586;2023-04-01T06:54:55;10;9;
62846;PMS5003;49477;35.676;139.586;2023-04-01T06:57:29;11;9;
62846;PMS5003;49477;35.676;139.586;2023-04-01T07:00:03;13;10;
62846;PMS5003;49477;35.676;139.586;2023-04-01T07:02:41;9;7;
62846;PMS5003;49477;35.676;139.586;2023-04-01T07:05:14;8;8;
62846;PMS5003;49477;35.676;139.586;2023-04-01T07:07:44;11;8;
62846;PMS5003;49477;35.676;139.586;2023-04-01T07:10:17;11;9;
62846;PMS5003;49477;35.676;139.586;2023-04-01T07:13:00;10;9;
62846;PMS5003;49477;35.676;139.586;2023-04-01T07:15:35;10;10;
62846;PMS5003;49477;35.676;139.586;2023-04-01T07:18:09;10;10;
62846;PMS5003;49477;35.676;139.586;2023-04-01T07:20:44;11;10;
62846;PMS5003;49477;35.676;139.586;2023-04-01T07:23:16;11;9;
62846;PMS5003;49477;35.676;139.586;2023-04-01T07:25:52;10;10;
62846;PMS5003;49477;35.676;139.586;2023-04-01T07:28:26;12;11;
62846;PMS5003;49477;35.676;139.586;2023-04-01T07:31:02;13;11;
62846;PMS5003;49477;35.676;139.586;2023-04-01T07:33:42;11;11;
62846;PMS5003;49477;35.676;139.586;2023-04-01T07:36:17;13;12;
62846;PMS5003;49477;35.676;139.586;2023-04-01T07:38:54;13;11;
62846;PMS5003;49477;35.676;139.586;2023-04-01T07:41:35;12;11;
62846;PMS5003;49477;35.676;139.586;2023-04-01T07:44:15;12;8;
62846;PMS5003;49477;35.676;139.586;2023-04-01T07:46:55;12;9;
62846;PMS5003;49477;35.676;139.586;2023-04-01T07:49:35;11;11;
62846;PMS5003;49477;35.676;139.586;2023-04-01T07:52:16;9;9;
62846;PMS5003;49477;35.676;139.586;2023-04-01T07:54:53;11;11;
62846;PMS5003;49477;35.676;139.586;2023-04-01T07:57:30;14;13;
62846;PMS5003;49477;35.676;139.586;2023-04-01T08:00:07;13;12;
62846;PMS5003;49477;35.676;139.586;2023-04-01T08:02:44;11;11;
62846;PMS5003;49477;35.676;139.586;2023-04-01T08:05:27;11;11;
62846;PMS5003;49477;35.676;139.586;2023-04-01T08:08:04;15;13;
62846;PMS5003;49477;35.676;139.586;2023-04-01T08:10:43;14;13;
62846;PMS5003;49477;35.676;139.586;2023-04-01T08:13:22;13;13;
62846;PMS5003;49477;35.676;139.586;2023-04-01T08:16:04;20;15;
62846;PMS5003;49477;35.676;139.586;2023-04-01T08:18:41;16;16;
62846;PMS5003;49477;35.676;139.586;2023-04-01T08:21:19;19;13;
62846;PMS5003;49477;35.676;139.586;2023-04-01T08:23:54;14;14;
62846;PMS5003;49477;35.676;139.586;2023-04-01T08:26:28;15;13;
62846;PMS5003;49477;35.676;139.586;2023-04-01T08:29:03;17;14;
62846;PMS5003;49477;35.676;139.586;2023-04-01T08:31:37;16;16;
62846;PMS5003;49477;35.676;139.586;2023-04-01T08:34:12;17;14;
62846;PMS5003;49477;35.676;139.586;2023-04-01T08:36:47;19;16;
62846;PMS5003;49477;35.676;139.586;2023-04-01T08:39:27;20;15;
62846;PMS5003;49477;35.676;139.586;2023-04-01T08:42:05;18;17;
62846;PMS5003;49477;35.676;139.586;2023-04-01T08:45:16;18;18;
62846;PMS5003;49477;35.676;139.586;2023-04-01T08:48:28;18;15;
62846;PMS5003;49477;35.676;139.586;2023-04-01T08:51:12;18;14;
62846;PMS5003;49477;35.676;139.586;2023-04-01T08:53:57;16;14;
62846;PMS5003;49477;35.676;139.586;2023-04-01T08:56:41;19;15;
62846;PMS5003;49477;35.676;139.586;2023-04-01T08:59:41;24;16;
62846;PMS5003;49477;35.676;139.586;2023-04-01T09:02:25;13;13;
62846;PMS5003;49477;35.676;139.586;2023-04-01T09:05:26;18;13;
62846;PMS5003;49477;35.676;139.586;2023-04-01T09:08:18;15;15;
62846;PMS5003;49477;35.676;139.586;2023-04-01T09:11:05;19;14;
62846;PMS5003;49477;35.676;139.586;2023-04-01T09:13:46;14;13;
62846;PMS5003;49477;35.676;139.586;2023-04-01T09:16:29;18;16;
62846;PMS5003;49477;35.676;139.586;2023-04-01T09:19:25;16;14;
62846;PMS5003;49477;35.676;139.586;2023-04-01T09:22:12;21;16;
62846;PMS5003;49477;35.676;139.586;2023-04-01T09:25:12;22;18;
62846;PMS5003;49477;35.676;139.586;2023-04-01T09:28:05;21;19;
62846;PMS5003;49477;35.676;139.586;2023-04-01T09:30:45;15;14;
62846;PMS5003;49477;35.676;139.586;2023-04-01T09:34:36;17;15;
62846;PMS5003;49477;35.676;139.586;2023-04-01T09:37:35;19;16;
62846;PMS5003;49477;35.676;139.586;2023-04-01T09:40:17;23;22;
62846;PMS5003;49477;35.676;139.586;2023-04-01T09:43:04;19;18;
62846;PMS5003;49477;35.676;139.586;2023-04-01T09:45:58;23;17;
62846;PMS5003;49477;35.676;139.586;2023-04-01T09:48:43;19;19;
62846;PMS5003;49477;35.676;139.586;2023-04-01T09:51:48;17;14;
62846;PMS5003;49477;35.676;139.586;2023-04-01T09:54:32;22;18;
62846;PMS5003;49477;35.676;139.586;2023-04-01T09:59:24;20;17;
62846;PMS5003;49477;35.676;139.586;2023-04-01T10:02:31;22;19;
62846;PMS5003;49477;35.676;139.586;2023-04-01T10:05:26;13;13;
62846;PMS5003;49477;35.676;139.586;2023-04-01T10:08:36;18;16;
62846;PMS5003;49477;35.676;139.586;2023-04-01T10:11:43;20;18;
62846;PMS5003;49477;35.676;139.586;2023-04-01T10:19:34;18;17;
62846;PMS5003;49477;35.676;139.586;2023-04-01T10:22:22;17;15;
62846;PMS5003;49477;35.676;139.586;2023-04-01T10:25:19;13;13;
62846;PMS5003;49477;35.676;139.586;2023-04-01T10:28:22;14;11;
62846;PMS5003;49477;35.676;139.586;2023-04-01T10:33:25;13;13;
62846;PMS5003;49477;35.676;139.586;2023-04-01T10:36:48;17;15;
62846;PMS5003;49477;35.676;139.586;2023-04-01T10:39:29;18;15;
62846;PMS5003;49477;35.676;139.586;2023-04-01T10:44:22;18;13;
62846;PMS5003;49477;35.676;139.586;2023-04-01T10:47:18;15;15;
62846;PMS5003;49477;35.676;139.586;2023-04-01T10:52:23;18;13;
62846;PMS5003;49477;35.676;139.586;2023-04-01T10:56:43;19;13;
62846;PMS5003;49477;35.676;139.586;2023-04-01T11:01:42;21;17;
62846;PMS5003;49477;35.676;139.586;2023-04-01T11:07:13;21;16;
62846;PMS5003;49477;35.676;139.586;2023-04-01T11:10:12;23;18;
62846;PMS5003;49477;35.676;139.586;2023-04-01T11:14:26;13;13;
62846;PMS5003;49477;35.676;139.586;2023-04-01T11:17:25;18;16;
62846;PMS5003;49477;35.676;139.586;2023-04-01T11:20:27;16;15;
62846;PMS5003;49477;35.676;139.586;2023-04-01T11:23:20;14;12;
62846;PMS5003;49477;35.676;139.586;2023-04-01T11:26:02;15;12;
62846;PMS5003;49477;35.676;139.586;2023-04-01T11:29:35;13;10;
62846;PMS5003;49477;35.676;139.586;2023-04-01T11:32:20;13;11;
62846;PMS5003;49477;35.676;139.586;2023-04-01T11:35:31;12;10;
62846;PMS5003;49477;35.676;139.586;2023-04-01T11:38:18;16;14;
62846;PMS5003;49477;35.676;139.586;2023-04-01T11:41:01;13;12;
62846;PMS5003;49477;35.676;139.586;2023-04-01T11:43:42;14;13;
62846;PMS5003;49477;35.676;139.586;2023-04-01T11:46:23;17;14;
62846;PMS5003;49477;35.676;139.586;2023-04-01T11:49:02;14;13;
62846;PMS5003;49477;35.676;139.586;2023-04-01T11:51:55;19;14;
62846;PMS5003;49477;35.676;139.586;2023-04-01T11:55:18;16;13;
62846;PMS5003;49477;35.676;139.586;2023-04-01T11:57:58;16;15;
62846;PMS5003;49477;35.676;139.586;2023-04-01T12:00:43;15;12;
62846;PMS5003;49477;35.676;139.586;2023-04-01T12:03:36;11;11;
62846;PMS5003;49477;35.676;139.586;2023-04-01T12:06:20;15;12;
62846;PMS5003;49477;35.676;139.586;2023-04-01T12:08:59;14;13;
62846;PMS5003;49477;35.676;139.586;2023-04-01T12:11:38;15;13;
62846;PMS5003;49477;35.676;139.586;2023-04-01T12:14:18;17;14;
62846;PMS5003;49477;35.676;139.586;2023-04-01T12:16:57;14;13;
62846;PMS5003;49477;35.676;139.586;2023-04-01T12:19:41;14;14;
62846;PMS5003;49477;35.676;139.586;2023-04-01T12:22:36;15;13;
62846;PMS5003;49477;35.676;139.586;2023-04-01T12:25:21;14;14;
62846;PMS5003;49477;35.676;139.586;2023-04-01T12:28:08;19;14;
62846;PMS5003;49477;35.676;139.586;2023-04-01T12:30:54;15;13;
62846;PMS5003;49477;35.676;139.586;2023-04-01T12:33:42;16;14;
62846;PMS5003;49477;35.676;139.586;2023-04-01T12:36:55;18;14;
62846;PMS5003;49477;35.676;139.586;2023-04-01T12:39:40;14;13;
62846;PMS5003;49477;35.676;139.586;2023-04-01T12:42:32;11;11;
62846;PMS5003;49477;35.676;139.586;2023-04-01T12:45:18;12;12;
62846;PMS5003;49477;35.676;139.586;2023-04-01T12:48:20;12;11;
62846;PMS5003;49477;35.676;139.586;2023-04-01T12:51:18;15;12;
62846;PMS5003;49477;35.676;139.586;2023-04-01T12:54:10;21;15;
62846;PMS5003;49477;35.676;139.586;2023-04-01T12:57:03;13;11;
62846;PMS5003;49477;35.676;139.586;2023-04-01T12:59:50;13;13;
62846;PMS5003;49477;35.676;139.586;2023-04-01T13:02:37;16;12;
62846;PMS5003;49477;35.676;139.586;2023-04-01T13:05:37;12;11;
62846;PMS5003;49477;35.676;139.586;2023-04-01T13:08:27;15;13;
62846;PMS5003;49477;35.676;139.586;2023-04-01T13:11:08;13;13;
62846;PMS5003;49477;35.676;139.586;2023-04-01T13:13:50;15;13;
62846;PMS5003;49477;35.676;139.586;2023-04-01T13:16:34;11;11;
62846;PMS5003;49477;35.676;139.586;2023-04-01T13:19:09;15;14;
62846;PMS5003;49477;35.676;139.586;2023-04-01T13:21:50;13;12;
62846;PMS5003;49477;35.676;139.586;2023-04-01T13:24:31;13;12;
62846;PMS5003;49477;35.676;139.586;2023-04-01T13:27:11;18;12;
62846;PMS5003;49477;35.676;139.586;2023-04-01T13:29:51;13;12;
62846;PMS5003;49477;35.676;139.586;2023-04-01T13:32:30;11;10;
62846;PMS5003;49477;35.676;139.586;2023-04-01T13:35:16;13;13;
62846;PMS5003;49477;35.676;139.586;2023-04-01T13:37:54;15;10;
62846;PMS5003;49477;35.676;139.586;2023-04-01T13:40:38;12;11;
62846;PMS5003;49477;35.676;139.586;2023-04-01T13:43:16;11;11;
62846;PMS5003;49477;35.676;139.586;2023-04-01T13:46:05;15;11;
62846;PMS5003;49477;35.676;139.586;2023-04-01T13:48:51;12;11;
62846;PMS5003;49477;35.676;139.586;2023-04-01T13:51:40;12;10;
62846;PMS5003;49477;35.676;139.586;2023-04-01T13:54:26;10;10;
62846;PMS5003;49477;35.676;139.586;2023-04-01T13:57:16;11;10;
62846;PMS5003;49477;35.676;139.586;2023-04-01T14:00:10;12;10;
62846;PMS5003;49477;35.676;139.586;2023-04-01T14:02:54;12;11;
62846;PMS5003;49477;35.676;139.586;2023-04-01T14:05:43;12;10;
62846;PMS5003;49477;35.676;139.586;2023-04-01T14:08:26;10;10;
62846;PMS5003;49477;35.676;139.586;2023-04-01T14:11:13;10;9;
62846;PMS5003;49477;35.676;139.586;2023-04-01T14:13:54;14;13;
62846;PMS5003;49477;35.676;139.586;2023-04-01T14:16:35;15;12;
62846;PMS5003;49477;35.676;139.586;2023-04-01T14:20:23;14;14;
62846;PMS5003;49477;35.676;139.586;2023-04-01T14:23:33;11;9;
62846;PMS5003;49477;35.676;139.586;2023-04-01T14:26:21;15;14;
62846;PMS5003;49477;35.676;139.586;2023-04-01T14:29:02;13;11;
62846;PMS5003;49477;35.676;139.586;2023-04-01T14:31:46;10;10;
62846;PMS5003;49477;35.676;139.586;2023-04-01T14:34:24;12;9;
62846;PMS5003;49477;35.676;139.586;2023-04-01T14:37:06;12;10;
62846;PMS5003;49477;35.676;139.586;2023-04-01T14:39:51;13;13;
62846;PMS5003;49477;35.676;139.586;2023-04-01T14:42:53;10;10;
62846;PMS5003;49477;35.676;139.586;2023-04-01T14:43:13;10;10;
62846;PMS5003;49477;35.676;139.586;2023-04-01T14:46:06;11;9;
62846;PMS5003;49477;35.676;139.586;2023-04-01T14:48:50;9;9;
62846;PMS5003;49477;35.676;139.586;2023-04-01T14:51:22;13;13;
62846;PMS5003;49477;35.676;139.586;2023-04-01T14:54:00;11;10;
62846;PMS5003;49477;35.676;139.586;2023-04-01T14:56:39;10;10;
62846;PMS5003;49477;35.676;139.586;2023-04-01T14:59:10;11;11;
62846;PMS5003;49477;35.676;139.586;2023-04-01T15:01:55;12;11;
62846;PMS5003;49477;35.676;139.586;2023-04-01T15:04:46;10;10;
62846;PMS5003;49477;35.676;139.586;2023-04-01T15:07:26;10;10;
62846;PMS5003;49477;35.676;139.586;2023-04-01T15:10:12;12;12;
62846;PMS5003;49477;35.676;139.586;2023-04-01T15:12:57;12;11;
62846;PMS5003;49477;35.676;139.586;2023-04-01T15:15:41;9;9;
62846;PMS5003;49477;35.676;139.586;2023-04-01T15:18:26;13;11;
62846;PMS5003;49477;35.676;139.586;2023-04-01T15:21:13;10;10;
62846;PMS5003;49477;35.676;139.586;2023-04-01T15:23:57;14;12;
62846;PMS5003;49477;35.676;139.586;2023-04-01T15:26:39;8;8;
62846;PMS5003;49477;35.676;139.586;2023-04-01T15:29:27;12;11;
62846;PMS5003;49477;35.676;139.586;2023-04-01T15:32:10;11;10;
62846;PMS5003;49477;35.676;139.586;2023-04-01T15:34:49;13;11;
62846;PMS5003;49477;35.676;139.586;2023-04-01T15:37:28;7;7;
62846;PMS5003;49477;35.676;139.586;2023-04-01T15:40:11;10;10;
62846;PMS5003;49477;35.676;139.586;2023-04-01T15:42:54;12;12;
62846;PMS5003;49477;35.676;139.586;2023-04-01T15:45:38;13;9;
62846;PMS5003;49477;35.676;139.586;2023-04-01T15:48:20;10;10;
62846;PMS5003;49477;35.676;139.586;2023-04-01T15:51:12;10;9;
62846;PMS5003;49477;35.676;139.586;2023-04-01T15:53:54;12;9;
62846;PMS5003;49477;35.676;139.586;2023-04-01T15:56:41;11;9;
62846;PMS5003;49477;35.676;139.586;2023-04-01T15:59:22;12;10;
62846;PMS5003;49477;35.676;139.586;2023-04-01T16:02:10;13;12;
62846;PMS5003;49477;35.676;139.586;2023-04-01T16:04:49;13;12;
62846;PMS5003;49477;35.676;139.586;2023-04-01T16:07:56;13;10;
62846;PMS5003;49477;35.676;139.586;2023-04-01T16:10:49;14;11;
62846;PMS5003;49477;35.676;139.586;2023-04-01T16:13:30;13;12;
62846;PMS5003;49477;35.676;139.586;2023-04-01T16:16:13;12;12;
62846;PMS5003;49477;35.676;139.586;2023-04-01T16:18:55;12;12;
62846;PMS5003;49477;35.676;139.586;2023-04-01T16:21:38;15;11;
62846;PMS5003;49477;35.676;139.586;2023-04-01T16:24:15;12;12;
62846;PMS5003;49477;35.676;139.586;2023-04-01T16:26:53;13;11;
62846;PMS5003;49477;35.676;139.586;2023-04-01T16:29:30;10;10;
62846;PMS5003;49477;35.676;139.586;2023-04-01T16:32:15;12;10;
62846;PMS5003;49477;35.676;139.586;2023-04-01T16:34:56;12;11;
62846;PMS5003;49477;35.676;139.586;2023-04-01T16:37:42;12;12;
62846;PMS5003;49477;35.676;139.586;2023-04-01T16:40:25;12;11;
62846;PMS5003;49477;35.676;139.586;2023-04-01T16:43:11;12;11;
62846;PMS5003;49477;35.676;139.586;2023-04-01T16:45:51;14;10;
62846;PMS5003;49477;35.676;139.586;2023-04-01T16:48:45;13;11;
62846;PMS5003;49477;35.676;139.586;2023-04-01T16:51:26;11;10;
62846;PMS5003;49477;35.676;139.586;2023-04-01T16:54:06;11;11;
62846;PMS5003;49477;35.676;139.586;2023-04-01T16:56:45;17;11;
62846;PMS5003;49477;35.676;139.586;2023-04-01T16:59:21;14;10;
62846;PMS5003;49477;35.676;139.586;2023-04-01T17:01:55;14;12;
62846;PMS5003;49477;35.676;139.586;2023-04-01T17:04:32;16;14;
62846;PMS5003;49477;35.676;139.586;2023-04-01T17:07:11;12;12;
62846;PMS5003;49477;35.676;139.586;2023-04-01T17:09:59;12;12;
62846;PMS5003;49477;35.676;139.586;2023-04-01T17:12:42;12;11;
62846;PMS5003;49477;35.676;139.586;2023-04-01T17:15:19;12;12;
62846;PMS5003;49477;35.676;139.586;2023-04-01T17:17:55;12;12;
62846;PMS5003;49477;35.676;139.586;2023-04-01T17:20:35;12;10;
62846;PMS5003;49477;35.676;139.586;2023-04-01T17:23:13;11;11;
62846;PMS5003;49477;35.676;139.586;2023-04-01T17:25:53;15;13;
62846;PMS5003;49477;35.676;139.586;2023-04-01T17:28:36;16;13;
62846;PMS5003;49477;35.676;139.586;2023-04-01T17:31:16;13;10;
62846;PMS5003;49477;35.676;139.586;2023-04-01T17:34:06;10;10;
62846;PMS5003;49477;35.676;139.586;2023-04-01T17:36:55;14;12;
62846;PMS5003;49477;35.676;139.586;2023-04-01T17:39:35;14;13;
62846;PMS5003;49477;35.676;139.586;2023-04-01T17:42:19;12;11;